Time;durP1;ratioP1;P1;durP2;ratioP2;P2;SDS_P1;SDS_P2;PMS_P1;PMS_P2;Temp;Humidity;BMP_temperature;BMP_pressure;BME280_temperature;BME280_humidity;BME280_pressure;Samples;Min_cycle;Max_cycle;Signal;HPM_P1;HPM_P2
2021/04/16 00:00:01;;;;;;;1.67;1.30;;;;;;;18.49;40.98;99861.03;2055859;28;20097;-71
2021/04/16 00:01:02;;;;;;;2.30;1.43;;;;;;;18.49;41.01;99863.75;2054695;28;20031;-71
2021/04/16 00:02:02;;;;;;;2.73;1.60;;;;;;;18.48;40.97;99865.63;2054210;28;20105;-71
2021/04/16 00:03:05;;;;;;;1.20;1.10;;;;;;;18.50;40.87;99865.50;2055711;28;20030;-71
2021/04/16 00:04:05;;;;;;;2.13;1.55;;;;;;;18.49;41.05;99864.63;2055137;28;20071;-71
2021/04/16 00:05:06;;;;;;;3.37;1.67;;;;;;;18.49;41.05;99858.31;2054815;28;20544;-71
2021/04/16 00:06:07;;;;;;;2.05;1.45;;;;;;;18.49;40.96;99863.75;2054024;28;20027;-71
2021/04/16 00:07:07;;;;;;;1.67;1.27;;;;;;;18.47;40.89;99857.59;2053602;28;20613;-71
2021/04/16 00:08:14;;;;;;;2.80;1.50;;;;;;;18.48;41.01;99856.59;2055834;28;20019;-71
2021/04/16 00:09:14;;;;;;;1.73;1.23;;;;;;;18.48;41.15;99859.31;2053187;28;20037;-71
2021/04/16 00:10:33;;;;;;;1.90;1.50;;;;;;;18.46;41.08;99854.00;2055428;28;20033;-71
2021/04/16 00:11:34;;;;;;;1.95;1.42;;;;;;;18.47;40.91;99855.75;2055651;28;20306;-71
2021/04/16 00:12:34;;;;;;;1.83;1.40;;;;;;;18.47;41.12;99855.75;2054933;28;20030;-71
2021/04/16 00:13:35;;;;;;;1.73;1.30;;;;;;;18.46;41.23;99864.06;2055968;28;20054;-71
2021/04/16 00:14:35;;;;;;;1.43;1.20;;;;;;;18.45;41.21;99851.41;2049480;28;20645;-71
2021/04/16 00:15:39;;;;;;;1.97;1.37;;;;;;;18.47;41.12;99860.31;2049015;28;20573;-71
2021/04/16 00:16:39;;;;;;;2.40;1.42;;;;;;;18.47;41.02;99854.88;2055628;28;20035;-71
2021/04/16 00:17:40;;;;;;;2.40;1.27;;;;;;;18.47;41.11;99849.41;2051928;28;20054;-71
2021/04/16 00:18:40;;;;;;;1.73;1.23;;;;;;;18.46;40.91;99854.00;2047915;28;20081;-71
2021/04/16 00:19:41;;;;;;;1.27;1.00;;;;;;;18.47;40.92;99850.28;2054279;28;20015;-71
2021/04/16 00:20:42;;;;;;;1.73;1.20;;;;;;;18.46;40.89;99851.28;2054779;28;20054;-71
2021/04/16 00:21:43;;;;;;;1.63;1.05;;;;;;;18.46;41.06;99847.69;2055769;28;20027;-71
2021/04/16 00:22:43;;;;;;;2.10;1.30;;;;;;;18.45;41.05;99845.97;2054301;28;20058;-71
2021/04/16 00:23:44;;;;;;;2.00;1.37;;;;;;;18.45;41.12;99840.50;2055709;28;20026;-71
2021/04/16 00:24:44;;;;;;;1.90;1.30;;;;;;;18.44;40.88;99845.09;2053716;28;20549;-71
2021/04/16 00:25:45;;;;;;;2.67;1.77;;;;;;;18.45;41.08;99845.97;2055686;28;20039;-71
2021/04/16 00:26:45;;;;;;;1.87;1.60;;;;;;;18.47;41.04;99843.94;2051680;28;20449;-71
2021/04/16 00:27:46;;;;;;;1.77;1.40;;;;;;;18.45;40.92;99840.50;2053650;28;20117;-71
2021/04/16 00:28:47;;;;;;;1.35;1.15;;;;;;;18.47;40.92;99843.94;2055489;28;20054;-71
2021/04/16 00:29:47;;;;;;;2.13;1.47;;;;;;;18.45;41.07;99845.97;2052068;28;20051;-71
2021/04/16 00:30:51;;;;;;;1.37;1.27;;;;;;;18.46;41.11;99842.25;2055694;28;20030;-71
2021/04/16 00:31:51;;;;;;;1.45;1.10;;;;;;;18.47;40.97;99843.94;2052869;28;20019;-71
2021/04/16 00:32:52;;;;;;;3.20;1.40;;;;;;;18.48;40.90;99841.06;2052369;28;20026;-71
2021/04/16 00:33:53;;;;;;;1.57;1.33;;;;;;;18.47;40.92;99835.75;2055123;28;20015;-71
2021/04/16 00:34:53;;;;;;;2.33;1.47;;;;;;;18.46;41.19;99832.19;2052582;28;20031;-71
2021/04/16 00:35:55;;;;;;;1.30;1.10;;;;;;;18.47;41.19;99841.22;2054863;28;20250;-71
2021/04/16 00:36:55;;;;;;;2.85;1.45;;;;;;;18.46;41.00;99836.78;2053883;28;20065;-71
2021/04/16 00:37:56;;;;;;;1.27;1.17;;;;;;;18.47;41.20;99838.50;2054459;28;20031;-71
2021/04/16 00:38:57;;;;;;;1.75;1.20;;;;;;;18.48;41.09;99838.34;2052219;28;20042;-71
2021/04/16 00:39:58;;;;;;;2.60;1.58;;;;;;;18.48;41.06;99834.75;2053579;28;20031;-71
2021/04/16 00:41:02;;;;;;;1.80;1.17;;;;;;;18.48;41.14;99823.84;2054584;28;20050;-71
2021/04/16 00:42:02;;;;;;;1.45;1.10;;;;;;;18.48;40.96;99830.16;2054067;28;20441;-71
2021/04/16 00:43:03;;;;;;;1.50;1.27;;;;;;;18.48;40.95;99829.31;2054905;28;20034;-71
2021/04/16 00:44:04;;;;;;;1.35;1.02;;;;;;;18.48;41.23;99824.69;2054114;28;20031;-71
2021/04/16 00:45:06;;;;;;;2.17;1.33;;;;;;;18.49;41.02;99831.00;2053829;28;20035;-71
2021/04/16 00:46:12;;;;;;;;;;;;;;;18.43;41.26;99830.59;2054894;28;20047;-71
2021/04/16 00:47:17;;;;;;;1.98;1.40;;;;;;;18.45;41.22;99832.31;2054833;28;19914;-70
2021/04/16 00:48:29;;;;;;;1.48;1.20;;;;;;;18.46;41.19;99823.97;2054701;28;20527;-71
2021/04/16 00:49:32;;;;;;;1.60;1.20;;;;;;;18.47;41.20;99838.50;2055245;28;20034;-71
2021/04/16 00:50:54;;;;;;;2.50;1.40;;;;;;;18.47;41.06;99833.91;2054301;28;20042;-71
2021/04/16 00:51:59;;;;;;;2.35;1.40;;;;;;;18.48;41.04;99818.38;2054201;28;20031;-71
2021/04/16 00:53:00;;;;;;;1.63;1.10;;;;;;;18.50;41.06;99816.38;2055065;28;20395;-71
2021/04/16 00:54:03;;;;;;;1.48;0.95;;;;;;;18.50;41.16;99816.38;2051318;28;20081;-71
2021/04/16 00:55:06;;;;;;;2.20;1.35;;;;;;;18.49;41.14;99820.94;2050441;28;20961;-71
2021/04/16 00:56:07;;;;;;;2.90;1.45;;;;;;;18.51;41.01;99813.47;2055219;28;20026;-71
2021/04/16 00:57:11;;;;;;;2.63;1.60;;;;;;;18.52;40.99;99814.31;2051288;28;20035;-71
2021/04/16 00:58:12;;;;;;;3.22;1.70;;;;;;;18.52;41.00;99819.78;2054765;28;20149;-71
2021/04/16 00:59:14;;;;;;;2.35;1.33;;;;;;;18.51;40.96;99813.47;2062358;28;20101;-71
2021/04/16 01:00:16;;;;;;;1.75;1.20;;;;;;;18.52;41.12;99808.84;2054324;28;20043;-71
2021/04/16 01:01:16;;;;;;;1.95;1.15;;;;;;;18.52;40.93;99823.41;2054424;28;20045;-71
2021/04/16 01:02:17;;;;;;;1.40;0.95;;;;;;;18.51;41.03;99818.06;2053791;28;20101;-71
2021/04/16 01:03:17;;;;;;;1.20;1.10;;;;;;;18.51;41.05;99807.16;2054594;28;20030;-71
2021/04/16 01:04:18;;;;;;;2.27;1.30;;;;;;;18.50;41.04;99810.91;2054564;28;20041;-71
2021/04/16 01:05:20;;;;;;;1.77;1.30;;;;;;;18.51;41.00;99807.16;2053965;28;20027;-71
2021/04/16 01:06:22;;;;;;;1.40;1.10;;;;;;;18.50;40.89;99810.91;2051412;28;20035;-71
2021/04/16 01:07:23;;;;;;;1.63;1.13;;;;;;;18.50;41.17;99810.91;2054121;28;20046;-71
2021/04/16 01:08:24;;;;;;;1.63;1.10;;;;;;;18.51;40.94;99804.44;2054924;28;20803;-71
2021/04/16 01:09:24;;;;;;;1.98;1.40;;;;;;;18.50;41.03;99810.91;2055071;28;20029;-71
2021/04/16 01:10:25;;;;;;;1.73;1.23;;;;;;;18.50;40.92;99805.44;2054710;28;20023;-71
2021/04/16 01:11:27;;;;;;;1.67;1.30;;;;;;;18.49;41.00;99804.56;2055322;28;20062;-71
2021/04/16 01:12:27;;;;;;;2.03;1.17;;;;;;;18.50;40.92;99805.44;2054120;28;20037;-71
2021/04/16 01:13:28;;;;;;;1.77;1.20;;;;;;;18.50;41.00;99806.31;2054684;28;20061;-71
2021/04/16 01:14:29;;;;;;;1.42;1.23;;;;;;;18.49;40.98;99803.72;2049987;28;20384;-71
2021/04/16 01:15:35;;;;;;;1.33;1.20;;;;;;;18.49;40.95;99803.72;2051627;28;20057;-71
2021/04/16 01:16:36;;;;;;;1.65;1.17;;;;;;;18.49;40.94;99798.25;2053090;28;20034;-71
2021/04/16 01:17:37;;;;;;;1.15;0.82;;;;;;;18.49;41.17;99798.25;2055014;28;20398;-71
2021/04/16 01:18:40;;;;;;;2.37;1.43;;;;;;;18.48;41.15;99802.00;2054996;28;20122;-71
2021/04/16 01:19:44;;;;;;;1.83;1.27;;;;;;;18.48;40.95;99800.13;2062159;28;20090;-70
2021/04/16 01:20:48;;;;;;;1.50;1.30;;;;;;;18.50;41.02;99802.72;2061715;28;20058;-71
2021/04/16 01:21:58;;;;;;;1.30;1.20;;;;;;;18.47;40.94;99801.16;2053925;28;20043;-71
2021/04/16 01:23:06;;;;;;;1.77;1.40;;;;;;;18.48;41.13;99802.88;2047223;28;20557;-71
2021/04/16 01:24:18;;;;;;;1.40;1.13;;;;;;;18.48;41.03;99802.00;2051997;28;20039;-71
2021/04/16 01:25:19;;;;;;;;;;;;;;;18.42;40.99;99793.44;2048671;28;20035;-71
2021/04/16 01:26:28;;;;;;;1.42;1.23;;;;;;;18.42;41.09;99793.44;2054529;28;19960;-71
2021/04/16 01:27:29;;;;;;;1.77;1.42;;;;;;;18.43;40.91;99797.84;2051790;28;20038;-71
2021/04/16 01:28:29;;;;;;;1.60;1.30;;;;;;;18.45;41.01;99796.84;2054947;28;20042;-71
2021/04/16 01:29:30;;;;;;;1.20;1.10;;;;;;;18.45;41.05;99791.38;2053827;28;20035;-71
2021/04/16 01:30:31;;;;;;;2.00;1.47;;;;;;;18.46;41.07;99793.13;2054165;28;20119;-71
2021/04/16 01:31:33;;;;;;;1.58;1.38;;;;;;;18.47;41.16;99797.53;2055078;28;20042;-71
2021/04/16 01:32:35;;;;;;;2.10;1.30;;;;;;;18.47;41.13;99790.25;2050355;28;20031;-71
2021/04/16 01:33:37;;;;;;;1.60;1.20;;;;;;;18.48;40.90;99785.63;2059903;28;20054;-71
2021/04/16 01:34:38;;;;;;;1.60;1.17;;;;;;;18.47;41.03;99795.69;2060349;28;20053;-71
2021/04/16 01:35:39;;;;;;;1.42;1.10;;;;;;;18.48;41.07;99791.09;2047000;28;20019;-71
2021/04/16 01:36:40;;;;;;;3.20;1.73;;;;;;;18.49;41.20;99793.66;2047065;28;20114;-71
2021/04/16 01:37:40;;;;;;;1.90;1.30;;;;;;;18.49;41.04;99800.97;2050211;28;20160;-71
2021/04/16 01:38:43;;;;;;;1.13;1.00;;;;;;;18.49;41.14;99790.06;2055284;28;20035;-71
2021/04/16 01:39:43;;;;;;;1.23;1.00;;;;;;;18.49;41.14;99787.34;2054595;28;20037;-70
2021/04/16 01:40:44;;;;;;;1.30;1.10;;;;;;;18.49;41.12;99792.78;2053435;28;20486;-71
2021/04/16 01:41:44;;;;;;;1.73;1.30;;;;;;;18.50;41.02;99794.53;2047088;28;20454;-71
2021/04/16 01:42:44;;;;;;;1.67;1.10;;;;;;;18.51;40.97;99796.25;2054219;28;20458;-71
2021/04/16 01:43:54;;;;;;;1.63;1.20;;;;;;;18.49;41.01;99790.06;2054955;28;20030;-71
2021/04/16 01:44:55;;;;;;;1.92;1.17;;;;;;;18.49;41.14;99787.34;2046591;28;20470;-71
2021/04/16 01:46:03;;;;;;;1.43;1.00;;;;;;;18.49;40.98;99792.78;2052242;28;20239;-71
2021/04/16 01:47:07;;;;;;;1.77;1.38;;;;;;;18.50;41.18;99786.34;2055012;28;20031;-71
2021/04/16 01:48:07;;;;;;;1.85;1.10;;;;;;;18.53;41.03;99791.50;2052908;28;20505;-71
2021/04/16 01:49:08;;;;;;;1.20;1.10;;;;;;;18.51;40.96;99790.78;2050881;28;20375;-71
2021/04/16 01:50:08;;;;;;;1.17;1.07;;;;;;;18.52;40.92;99787.91;2053601;28;20836;-71
2021/04/16 01:51:14;;;;;;;1.30;1.00;;;;;;;18.53;40.95;99788.75;2054870;28;20031;-71
2021/04/16 01:52:32;;;;;;;1.00;0.90;;;;;;;18.52;41.03;99784.28;2051450;28;20270;-71
2021/04/16 01:53:33;;;;;;;1.52;1.10;;;;;;;18.51;41.03;99790.78;2050091;28;20023;-71
2021/04/16 01:54:36;;;;;;;1.37;0.97;;;;;;;18.53;40.94;99794.22;2048544;28;20038;-71
2021/04/16 01:55:37;;;;;;;1.60;1.20;;;;;;;18.54;40.99;99795.91;2052164;28;20446;-71
2021/04/16 01:56:39;;;;;;;1.60;1.10;;;;;;;18.54;40.79;99795.91;2054881;28;20488;-71
2021/04/16 01:57:40;;;;;;;1.42;1.17;;;;;;;18.53;40.96;99789.63;2047683;28;20105;-71
2021/04/16 01:58:41;;;;;;;3.07;1.40;;;;;;;18.53;40.77;99799.69;2054804;28;20027;-71
2021/04/16 01:59:44;;;;;;;2.07;1.37;;;;;;;18.54;40.89;99796.78;2055507;28;20031;-71
2021/04/16 02:00:45;;;;;;;1.85;1.40;;;;;;;18.54;41.09;99801.38;2056012;28;20687;-71
2021/04/16 02:01:45;;;;;;;1.67;1.10;;;;;;;18.53;40.90;99800.53;2057008;28;20393;-71
2021/04/16 02:02:46;;;;;;;1.53;1.13;;;;;;;18.52;41.03;99803.41;2053622;28;20065;-71
2021/04/16 02:03:46;;;;;;;1.63;1.27;;;;;;;18.53;40.87;99799.69;2056972;28;20465;-71
2021/04/16 02:04:47;;;;;;;1.27;1.00;;;;;;;18.52;40.91;99807.00;2056411;28;20027;-71
2021/04/16 02:05:47;;;;;;;1.60;1.20;;;;;;;18.52;40.92;99808.84;2048195;29;20027;-71
2021/04/16 02:06:50;;;;;;;1.43;1.20;;;;;;;18.52;40.92;99806.13;2056516;28;20728;-71
2021/04/16 02:07:53;;;;;;;2.00;1.40;;;;;;;18.53;40.98;99799.69;2052153;28;20109;-70
2021/04/16 02:08:54;;;;;;;1.20;1.00;;;;;;;18.53;40.84;99808.72;2057669;28;20478;-71
2021/04/16 02:09:54;;;;;;;1.67;1.30;;;;;;;18.54;40.94;99806.84;2056156;28;20622;-71
2021/04/16 02:10:55;;;;;;;1.40;1.20;;;;;;;18.53;40.82;99808.72;2056467;28;20092;-71
2021/04/16 02:11:55;;;;;;;2.20;1.20;;;;;;;18.51;40.75;99808.00;2057428;28;20054;-71
2021/04/16 02:12:56;;;;;;;1.27;1.00;;;;;;;18.51;40.84;99804.44;2056840;28;20057;-71
2021/04/16 02:13:57;;;;;;;1.97;1.10;;;;;;;18.52;40.87;99808.84;2057005;28;20204;-71
2021/04/16 02:14:57;;;;;;;1.70;1.20;;;;;;;18.52;40.84;99808.84;2056647;28;20520;-71
2021/04/16 02:15:57;;;;;;;2.20;1.27;;;;;;;18.51;40.92;99801.69;2057120;28;20035;-71
2021/04/16 02:17:05;;;;;;;2.17;1.53;;;;;;;18.50;40.95;99800.84;2057537;28;20038;-71
2021/04/16 02:18:06;;;;;;;1.45;1.10;;;;;;;18.51;40.84;99812.63;2053289;28;20077;-71
2021/04/16 02:19:07;;;;;;;1.10;1.00;;;;;;;18.51;40.89;99812.63;2054770;28;20039;-71
2021/04/16 02:20:13;;;;;;;1.87;1.50;;;;;;;18.50;40.95;99805.44;2055634;28;20038;-71
2021/04/16 02:21:14;;;;;;;1.77;1.20;;;;;;;18.50;40.86;99805.44;2056043;28;20450;-71
2021/04/16 02:22:17;;;;;;;1.37;1.03;;;;;;;18.50;41.00;99809.03;2057219;28;20576;-71
2021/04/16 02:23:18;;;;;;;1.20;1.10;;;;;;;18.49;40.82;99815.50;2057102;28;20031;-71
2021/04/16 02:24:19;;;;;;;1.10;1.00;;;;;;;18.50;41.05;99810.91;2056985;28;20034;-71
2021/04/16 02:25:20;;;;;;;1.58;1.10;;;;;;;18.50;40.79;99808.19;2057220;28;20042;-71
2021/04/16 02:26:21;;;;;;;2.05;1.50;;;;;;;18.49;40.78;99807.31;2055978;28;20042;-71
2021/04/16 02:27:25;;;;;;;1.47;1.07;;;;;;;18.49;40.77;99809.19;2056232;28;20033;-71
2021/04/16 02:28:26;;;;;;;1.33;1.08;;;;;;;18.50;41.08;99808.19;2055182;28;20031;-71
2021/04/16 02:29:26;;;;;;;1.40;1.00;;;;;;;18.49;40.95;99803.72;2053280;28;20106;-71
2021/04/16 02:30:33;;;;;;;1.40;1.20;;;;;;;18.48;40.88;99811.06;2057295;28;20556;-71
2021/04/16 02:31:34;;;;;;;1.58;1.02;;;;;;;18.48;40.87;99818.38;2055677;28;20108;-71
2021/04/16 02:32:35;;;;;;;1.93;1.20;;;;;;;18.48;41.07;99808.31;2055724;28;20093;-71
2021/04/16 02:33:35;;;;;;;1.23;0.90;;;;;;;18.48;40.94;99807.47;2052475;28;20383;-71
2021/04/16 02:34:36;;;;;;;1.40;1.10;;;;;;;18.48;40.94;99802.88;2052697;28;20053;-71
2021/04/16 02:35:36;;;;;;;1.83;1.33;;;;;;;18.49;40.88;99801.84;2056875;28;20070;-71
2021/04/16 02:36:37;;;;;;;1.30;1.00;;;;;;;18.52;40.80;99806.13;2057008;28;20038;-70
2021/04/16 02:37:37;;;;;;;1.63;1.13;;;;;;;18.51;41.00;99807.16;2055743;28;20085;-71
2021/04/16 02:38:38;;;;;;;1.40;1.20;;;;;;;18.51;41.05;99812.63;2057512;28;20377;-71
2021/04/16 02:39:39;;;;;;;1.00;0.73;;;;;;;18.50;41.02;99806.31;2055404;28;20037;-71
2021/04/16 02:40:40;;;;;;;1.58;1.27;;;;;;;18.51;40.88;99807.16;2057337;28;20034;-71
2021/04/16 02:41:41;;;;;;;1.37;1.10;;;;;;;18.50;40.94;99803.56;2053324;28;20058;-71
2021/04/16 02:42:41;;;;;;;1.92;1.25;;;;;;;18.52;41.01;99806.13;2051048;28;20031;-71
2021/04/16 02:43:42;;;;;;;1.63;1.13;;;;;;;18.51;41.11;99809.88;2053636;28;20026;-71
2021/04/16 02:44:43;;;;;;;0.93;0.93;;;;;;;18.51;40.95;99808.00;2053070;28;20054;-71
2021/04/16 02:45:44;;;;;;;1.30;1.00;;;;;;;18.51;40.99;99807.16;2057407;28;20038;-71
2021/04/16 02:46:45;;;;;;;1.60;1.10;;;;;;;18.52;40.95;99803.41;2056319;28;20058;-71
2021/04/16 02:47:46;;;;;;;1.75;0.98;;;;;;;18.52;41.02;99808.84;2056371;28;20027;-71
2021/04/16 02:48:46;;;;;;;1.20;0.80;;;;;;;18.52;40.92;99814.31;2056676;28;20049;-71
2021/04/16 02:49:47;;;;;;;1.53;1.30;;;;;;;18.53;41.03;99805.13;2056773;28;20027;-71
2021/04/16 02:50:52;;;;;;;1.10;0.87;;;;;;;18.52;40.87;99806.13;2050362;28;20724;-71
2021/04/16 02:51:53;;;;;;;1.02;0.90;;;;;;;18.53;40.88;99806.00;2055868;28;20085;-71
2021/04/16 02:52:54;;;;;;;1.10;0.90;;;;;;;18.53;41.01;99810.59;2056824;28;20093;-71
2021/04/16 02:53:54;;;;;;;1.87;1.10;;;;;;;18.55;40.88;99811.31;2057004;28;20029;-71
2021/04/16 02:54:55;;;;;;;1.60;1.23;;;;;;;18.54;40.69;99801.38;2057148;28;20031;-71
2021/04/16 02:55:55;;;;;;;1.03;0.93;;;;;;;18.55;40.82;99811.31;2056301;28;20107;-71
2021/04/16 02:56:56;;;;;;;2.07;1.27;;;;;;;18.55;40.84;99808.56;2052223;28;20050;-71
2021/04/16 02:57:56;;;;;;;1.63;1.10;;;;;;;18.54;40.95;99806.84;2054959;28;20035;-71
2021/04/16 02:58:58;;;;;;;1.93;1.23;;;;;;;18.54;40.99;99809.56;2057257;28;20026;-71
2021/04/16 02:59:58;;;;;;;1.50;1.17;;;;;;;18.53;40.95;99811.44;2053311;28;20035;-71
2021/04/16 03:00:59;;;;;;;2.97;1.53;;;;;;;18.53;40.98;99816.06;2056115;28;20541;-71
2021/04/16 03:01:59;;;;;;;1.70;0.93;;;;;;;18.53;41.01;99805.13;2056600;28;20085;-71
2021/04/16 03:03:00;;;;;;;1.70;1.17;;;;;;;18.52;40.91;99806.13;2056398;28;20037;-71
2021/04/16 03:04:01;;;;;;;1.17;1.00;;;;;;;18.54;40.89;99810.41;2056233;28;20043;-71
2021/04/16 03:05:02;;;;;;;1.00;0.90;;;;;;;18.54;40.74;99801.38;2056588;28;20278;-71
2021/04/16 03:06:05;;;;;;;2.17;1.20;;;;;;;18.52;40.96;99807.00;2056983;28;20026;-71
2021/04/16 03:07:05;;;;;;;1.15;0.90;;;;;;;18.53;40.73;99810.59;2049297;28;20035;-71
2021/04/16 03:08:06;;;;;;;1.50;1.20;;;;;;;18.52;40.90;99809.75;2056714;28;20126;-71
2021/04/16 03:09:07;;;;;;;2.60;1.00;;;;;;;18.52;40.92;99803.41;2056851;28;20042;-71
2021/04/16 03:10:09;;;;;;;1.75;1.30;;;;;;;18.53;40.74;99813.31;2056138;28;20045;-71
2021/04/16 03:11:11;;;;;;;1.58;1.10;;;;;;;18.52;40.77;99811.59;2054856;28;20114;-71
2021/04/16 03:12:11;;;;;;;1.40;1.15;;;;;;;18.51;40.75;99818.94;2047458;28;20027;-71
2021/04/16 03:13:12;;;;;;;1.07;0.93;;;;;;;18.50;40.72;99810.91;2054814;28;20121;-71
2021/04/16 03:14:12;;;;;;;1.03;0.93;;;;;;;18.49;40.85;99814.63;2055914;28;20034;-71
2021/04/16 03:15:13;;;;;;;1.17;1.00;;;;;;;18.50;40.95;99810.91;2055956;28;20037;-71
2021/04/16 03:16:15;;;;;;;1.70;1.20;;;;;;;18.50;40.64;99810.91;2055502;28;20641;-71
2021/04/16 03:17:16;;;;;;;1.10;0.80;;;;;;;18.50;40.98;99813.63;2054453;28;20122;-71
2021/04/16 03:18:16;;;;;;;2.50;1.33;;;;;;;18.50;40.85;99805.44;2055322;28;20625;-71
2021/04/16 03:19:17;;;;;;;1.63;1.10;;;;;;;18.50;40.84;99805.44;2050604;28;20038;-71
2021/04/16 03:20:19;;;;;;;1.47;1.20;;;;;;;18.49;40.98;99810.03;2055136;28;20037;-70
2021/04/16 03:21:21;;;;;;;1.30;1.05;;;;;;;18.49;40.96;99804.56;2055881;28;20031;-71
2021/04/16 03:22:22;;;;;;;1.20;0.82;;;;;;;18.50;40.89;99805.44;2050185;28;20030;-71
2021/04/16 03:23:22;;;;;;;1.23;0.83;;;;;;;18.50;40.84;99808.19;2061532;28;20038;-71
2021/04/16 03:24:23;;;;;;;1.40;1.17;;;;;;;18.49;40.92;99801.84;2063381;28;20022;-71
2021/04/16 03:25:23;;;;;;;1.30;1.10;;;;;;;18.49;41.01;99803.72;2055808;28;20034;-71
2021/04/16 03:26:24;;;;;;;0.90;0.90;;;;;;;18.49;40.94;99809.19;2055225;28;20114;-71
2021/04/16 03:27:25;;;;;;;1.20;1.10;;;;;;;18.50;40.89;99808.19;2051205;28;20059;-71
2021/04/16 03:28:25;;;;;;;1.40;0.90;;;;;;;18.50;40.88;99806.31;2053757;28;20101;-71
2021/04/16 03:29:26;;;;;;;1.87;1.00;;;;;;;18.51;40.91;99801.69;2053765;28;20050;-71
2021/04/16 03:30:28;;;;;;;1.40;1.00;;;;;;;18.51;40.83;99805.28;2055856;28;20544;-71
2021/04/16 03:31:28;;;;;;;;;;;;;;;18.47;40.90;99800.28;2056372;28;20113;-71
2021/04/16 03:32:29;;;;;;;1.65;1.23;;;;;;;18.48;40.95;99804.75;2048425;28;20377;-71
2021/04/16 03:33:29;;;;;;;2.80;1.00;;;;;;;18.48;40.89;99805.59;2055984;28;20851;-71
2021/04/16 03:34:30;;;;;;;0.93;0.83;;;;;;;18.49;40.83;99806.44;2055657;28;20046;-71
2021/04/16 03:35:30;;;;;;;1.40;0.93;;;;;;;18.49;41.02;99803.72;2056136;28;20109;-71
2021/04/16 03:36:31;;;;;;;1.47;1.10;;;;;;;18.50;41.04;99794.53;2054461;28;20647;-71
2021/04/16 03:37:31;;;;;;;1.33;1.10;;;;;;;18.50;40.77;99805.44;2053402;28;20039;-71
2021/04/16 03:38:32;;;;;;;0.97;0.80;;;;;;;18.52;40.92;99803.41;2055131;28;20148;-71
2021/04/16 03:39:32;;;;;;;2.00;1.23;;;;;;;18.51;41.00;99801.69;2054849;28;20493;-71
2021/04/16 03:40:33;;;;;;;1.50;1.10;;;;;;;18.53;40.90;99810.59;2055430;28;20030;-71
2021/04/16 03:41:34;;;;;;;1.20;1.10;;;;;;;18.54;40.90;99806.84;2054458;28;20034;-71
2021/04/16 03:42:34;;;;;;;1.83;1.10;;;;;;;18.55;40.86;99814.03;2056205;28;20118;-71
2021/04/16 03:43:35;;;;;;;1.13;1.00;;;;;;;18.55;40.80;99814.03;2055130;28;20027;-71
2021/04/16 03:44:35;;;;;;;1.07;0.90;;;;;;;18.53;40.86;99810.59;2056072;28;20039;-71
2021/04/16 03:45:36;;;;;;;1.63;1.13;;;;;;;18.53;40.77;99810.59;2054082;28;20823;-71
2021/04/16 03:46:36;;;;;;;1.70;1.10;;;;;;;18.53;40.90;99811.44;2056039;28;20062;-71
2021/04/16 03:47:37;;;;;;;1.63;1.13;;;;;;;18.53;40.92;99816.91;2052354;28;20382;-71
2021/04/16 03:48:37;;;;;;;1.20;0.83;;;;;;;18.54;40.92;99812.31;2055615;28;20031;-71
2021/04/16 03:49:38;;;;;;;1.00;0.87;;;;;;;18.53;40.88;99819.63;2056017;28;20033;-71
2021/04/16 03:50:38;;;;;;;1.43;1.13;;;;;;;18.55;40.83;99819.50;2055239;28;20031;-71
2021/04/16 03:51:58;;;;;;;1.07;0.97;;;;;;;18.52;41.01;99819.78;2055754;28;20369;-71
2021/04/16 03:52:59;;;;;;;0.98;0.90;;;;;;;18.54;40.85;99823.22;2052825;28;20115;-71
2021/04/16 03:54:01;;;;;;;1.33;1.10;;;;;;;18.53;40.85;99821.50;2054620;28;20041;-71
2021/04/16 03:55:02;;;;;;;1.45;1.10;;;;;;;18.53;40.83;99821.50;2049760;28;20591;-71
2021/04/16 03:56:04;;;;;;;1.30;1.17;;;;;;;18.54;40.81;99823.22;2055144;28;20035;-71
2021/04/16 03:57:07;;;;;;;0.75;0.75;;;;;;;18.54;40.91;99823.22;2055292;28;20082;-71
2021/04/16 03:58:09;;;;;;;1.30;1.02;;;;;;;18.54;40.77;99815.03;2050836;28;20066;-71
2021/04/16 03:59:10;;;;;;;1.50;1.05;;;;;;;18.54;40.83;99817.75;2052424;28;20030;-71
2021/04/16 04:00:13;;;;;;;1.27;1.00;;;;;;;18.53;40.94;99822.38;2055602;28;20037;-71
2021/04/16 04:01:16;;;;;;;0.95;0.80;;;;;;;18.51;40.81;99821.66;2051484;28;20037;-71
2021/04/16 04:02:16;;;;;;;1.25;0.90;;;;;;;18.54;40.81;99828.69;2051347;28;20109;-71
2021/04/16 04:03:17;;;;;;;1.60;1.03;;;;;;;18.53;40.91;99818.78;2050187;28;20035;-71
2021/04/16 04:04:18;;;;;;;1.00;0.90;;;;;;;18.52;40.79;99822.50;2052359;28;20117;-71
2021/04/16 04:05:20;;;;;;;1.45;1.02;;;;;;;18.53;40.87;99821.50;2055649;28;20050;-71
2021/04/16 04:06:20;;;;;;;1.27;1.17;;;;;;;18.52;40.93;99820.66;2055227;28;20030;-71
2021/04/16 04:07:20;;;;;;;1.63;1.10;;;;;;;18.52;40.61;99814.31;2055668;28;20031;-71
2021/04/16 04:08:21;;;;;;;1.50;1.10;;;;;;;18.54;41.23;99823.22;2049184;28;20035;-71
2021/04/16 04:09:22;;;;;;;1.97;1.20;;;;;;;18.54;40.89;99823.22;2049188;28;20058;-71
2021/04/16 04:10:23;;;;;;;1.27;0.93;;;;;;;18.54;40.79;99821.34;2047947;28;20070;-71
2021/04/16 04:11:23;;;;;;;1.42;0.98;;;;;;;18.52;40.77;99820.66;2053271;28;20138;-71
2021/04/16 04:12:25;;;;;;;1.53;1.13;;;;;;;18.52;40.74;99825.25;2054851;28;20067;-71
2021/04/16 04:13:26;;;;;;;1.95;1.25;;;;;;;18.51;40.80;99829.84;2049011;28;20067;-71
2021/04/16 04:14:26;;;;;;;1.77;1.43;;;;;;;18.53;40.74;99832.44;2050078;28;20030;-71
2021/04/16 04:15:27;;;;;;;0.80;0.80;;;;;;;18.51;40.86;99829.00;2047918;28;20386;-70
2021/04/16 04:16:28;;;;;;;1.20;1.10;;;;;;;18.52;40.79;99830.69;2049923;28;20524;-71
2021/04/16 04:17:32;;;;;;;1.48;1.08;;;;;;;18.50;40.86;99822.69;2048024;28;20402;-71
2021/04/16 04:18:32;;;;;;;1.15;0.93;;;;;;;18.52;40.76;99828.84;2055198;28;20535;-71
2021/04/16 04:19:34;;;;;;;1.87;1.10;;;;;;;18.51;40.87;99829.00;2055061;28;20433;-71
2021/04/16 04:20:37;;;;;;;1.00;0.88;;;;;;;18.50;40.81;99838.22;2055282;28;20090;-71
2021/04/16 04:21:37;;;;;;;1.52;1.10;;;;;;;18.51;41.00;99834.44;2050841;28;20119;-71
2021/04/16 04:22:38;;;;;;;2.67;1.10;;;;;;;18.51;40.96;99834.44;2047597;28;20038;-71
2021/04/16 04:23:38;;;;;;;1.35;0.93;;;;;;;18.51;40.93;99837.19;2048946;28;20038;-71
2021/04/16 04:24:38;;;;;;;1.57;0.97;;;;;;;18.50;40.94;99827.28;2053558;28;20026;-71
2021/04/16 04:25:39;;;;;;;1.10;0.90;;;;;;;18.51;40.83;99837.19;2053809;28;20150;-71
2021/04/16 04:26:40;;;;;;;1.23;1.00;;;;;;;18.50;41.01;99832.75;2055491;28;20098;-71
2021/04/16 04:27:40;;;;;;;1.83;1.05;;;;;;;18.49;40.89;99828.28;2055087;28;20018;-71
2021/04/16 04:28:41;;;;;;;1.77;1.23;;;;;;;18.50;41.04;99833.59;2055142;28;20022;-71
2021/04/16 04:29:42;;;;;;;1.47;1.13;;;;;;;18.51;40.99;99832.56;2047265;28;20023;-71
2021/04/16 04:30:42;;;;;;;1.40;1.30;;;;;;;18.52;41.08;99841.63;2053350;28;20031;-70
2021/04/16 04:31:47;;;;;;;1.33;1.17;;;;;;;18.51;41.00;99829.84;2050540;28;20031;-71
2021/04/16 04:32:47;;;;;;;1.50;1.10;;;;;;;18.50;40.77;99832.75;2055389;28;20105;-71
2021/04/16 04:33:48;;;;;;;1.20;0.80;;;;;;;18.51;40.97;99834.44;2053722;28;20042;-71
2021/04/16 04:34:48;;;;;;;1.37;1.10;;;;;;;18.51;40.94;99838.03;2055167;28;20074;-70
2021/04/16 04:35:49;;;;;;;1.33;1.10;;;;;;;18.52;40.78;99836.16;2062681;28;20030;-71
2021/04/16 04:36:52;;;;;;;1.83;1.10;;;;;;;18.52;40.83;99842.50;2054881;28;20399;-71
2021/04/16 04:37:53;;;;;;;1.70;1.17;;;;;;;18.53;40.93;99846.94;2055237;28;20386;-71
2021/04/16 04:38:54;;;;;;;1.45;1.30;;;;;;;18.52;40.83;99850.69;2055432;28;20023;-71
2021/04/16 04:39:54;;;;;;;0.90;0.77;;;;;;;18.51;41.05;99839.91;2053529;28;20030;-71
2021/04/16 04:40:54;;;;;;;1.30;1.10;;;;;;;18.52;41.06;99842.50;2055137;28;20394;-71
2021/04/16 04:41:56;;;;;;;1.10;0.97;;;;;;;18.52;41.09;99847.97;2054759;28;20542;-71
2021/04/16 04:42:57;;;;;;;1.13;1.02;;;;;;;18.53;40.90;99854.28;2053985;28;20805;-71
2021/04/16 04:43:57;;;;;;;1.10;0.87;;;;;;;18.54;40.84;99855.97;2052542;28;20533;-71
2021/04/16 04:44:58;;;;;;;1.17;1.00;;;;;;;18.54;40.71;99858.72;2053995;28;20589;-71
2021/04/16 04:45:59;;;;;;;1.00;0.88;;;;;;;18.53;40.82;99854.28;2055468;28;20061;-71
2021/04/16 04:47:00;;;;;;;0.98;0.90;;;;;;;18.54;40.96;99851.38;2054788;28;20109;-71
2021/04/16 04:48:01;;;;;;;1.13;1.00;;;;;;;18.55;40.78;99854.97;2054290;28;20069;-71
2021/04/16 04:49:02;;;;;;;2.60;1.37;;;;;;;18.54;40.81;99850.50;2054566;28;20030;-71
2021/04/16 04:50:05;;;;;;;1.42;1.08;;;;;;;18.55;40.89;99863.16;2054588;28;20030;-71